首页
METAR-TAF:

METAR-TAF

机场 :

洛迦诺, 瑞士

纬度: 46-09-55N, 经度: 8-52-40E, 海拔: 198米

当前天气观测

该预报发布于12分钟前的17:20 UTC
风速2节,风向多变
温度 30°C
湿度 62%
气压 1007 hPa
能见度10公里或以上
散云层高于7900英尺

METAR: LSZL 061720Z AUTO VRB02KT 9999NDV SCT079 30/22 Q1007 RMK

时间: 19:32 (17:32 UTC)

预报

该预报发布于6小时和7分钟前的11:25 UTC
预报有效从06日的 12点(UTC)到 06日的 21点(UTC)
风速4节,风向西转西南
能见度10公里或以上
少量云层高于6500英尺
成为
从 06日的 16点(UTC)到 06日的 19点(UTC)
风速12节,风向,有时为25节阵风
成为
从 06日的 18点(UTC)到 06日的 21点(UTC)
能见度10公里或以上
1500米以下无云,无积雨云

TAF: LSZL 061125Z 0612/0621 25004KT 9999 FEW065 BECMG 0616/0619 08012G25KT BECMG 0618/0621 CAVOK

超过4000个机场的气象观测和天气预报(METAR&TAF报告)。

可查询的气象台以黄色和红色小点在地图上表示。

将鼠标移到小点上方,可查看气象台名称。

然后点击查看天气观测和预报。

如需切换地图:点击带黑十字的绿色按钮放大地图;点击带横线的绿色按钮缩小地图;或者点击绿色箭头查看邻近地区的地图。


METAR-TAF: